createdAt,value
2017-02-24T00:40:09.259Z,982.392
2017-02-24T00:43:17.304Z,982.440
2017-02-24T01:01:23.202Z,982.843
2017-02-24T01:04:25.275Z,982.948
2017-02-24T01:07:34.022Z,982.947
2017-02-24T01:10:38.736Z,983.021
2017-02-24T01:13:43.884Z,983.092
2017-02-24T01:16:52.525Z,983.121
2017-02-24T01:19:45.657Z,983.186
2017-02-24T01:22:57.920Z,983.238
2017-02-24T02:08:39.662Z,983.857
2017-02-24T02:11:44.111Z,983.872
2017-02-24T02:14:50.555Z,983.903
2017-02-24T02:17:54.233Z,983.984
2017-02-24T02:20:58.155Z,984.043
2017-02-24T02:24:02.756Z,984.069
2017-02-24T02:27:07.852Z,984.089
2017-02-24T02:30:13.601Z,984.097
2017-02-24T02:33:18.733Z,984.140
2017-02-24T02:48:38.120Z,984.467
2017-02-24T02:51:37.347Z,984.625
2017-02-24T02:54:50.109Z,984.785
2017-02-24T02:57:52.663Z,984.965
2017-02-24T03:00:57.777Z,985.089
2017-02-24T03:04:02.584Z,985.194
2017-02-24T03:07:13.749Z,985.387
2017-02-24T03:10:17.989Z,985.539
2017-02-24T03:13:22.016Z,985.763
2017-02-24T03:16:20.140Z,985.890
2017-02-24T03:19:25.154Z,986.025
2017-02-24T03:22:30.024Z,986.216
2017-02-24T03:25:35.037Z,986.378
2017-02-24T03:28:35.092Z,986.423
2017-02-24T03:31:45.919Z,986.580
2017-02-24T03:34:50.965Z,986.677
2017-02-24T03:37:56.538Z,986.873
2017-02-24T03:41:02.227Z,986.953
2017-02-24T03:44:06.855Z,987.136
2017-02-24T03:47:06.907Z,987.332
2017-02-24T03:50:18.731Z,987.381
2017-02-24T03:53:12.421Z,987.527
2017-02-24T04:39:10.449Z,989.530
2017-02-24T05:06:42.106Z,991.375
2017-02-24T05:09:49.905Z,991.628
2017-02-24T05:12:52.242Z,991.838
2017-02-24T05:15:55.516Z,992.034
2017-02-24T05:18:54.846Z,992.310
2017-02-24T05:25:06.948Z,992.686
2017-02-24T05:28:16.612Z,992.860
2017-02-24T05:31:14.672Z,993.086
2017-02-24T05:34:19.698Z,993.332
2017-02-24T05:37:24.295Z,993.633
2017-02-24T05:40:35.259Z,993.712
2017-02-24T05:43:34.744Z,993.956
2017-02-24T05:46:39.811Z,994.184
2017-02-24T05:49:44.393Z,994.369
2017-02-24T05:52:49.228Z,994.614
2017-02-24T05:56:00.483Z,994.820
2017-02-24T05:59:04.067Z,994.991
2017-02-24T06:05:07.638Z,995.287
2017-02-24T06:08:13.602Z,995.447
2017-02-24T06:11:17.587Z,995.717
2017-02-24T06:14:28.751Z,995.774
2017-02-24T06:17:25.193Z,995.969
2017-02-24T06:23:35.120Z,996.378
2017-02-24T06:26:41.842Z,996.477
2017-02-24T06:29:47.379Z,996.699
2017-02-24T06:32:48.487Z,996.875
2017-02-24T06:35:53.308Z,997.002
2017-02-24T06:42:03.013Z,997.310
2017-02-24T06:45:02.915Z,997.440
2017-02-24T06:48:14.627Z,997.566
2017-02-24T06:51:19.673Z,997.716
2017-02-24T06:54:22.579Z,997.872
2017-02-24T06:57:26.695Z,998.082
2017-02-24T07:00:31.378Z,998.281
2017-02-24T07:03:36.339Z,998.389
2017-02-24T07:06:35.440Z,998.503
2017-02-24T07:09:47.449Z,998.646
2017-02-24T07:12:44.452Z,998.775
2017-02-24T07:15:54.752Z,998.873
2017-02-24T07:18:59.852Z,999.006
2017-02-24T07:22:04.571Z,999.209
2017-02-24T07:25:09.354Z,999.331
2017-02-24T07:28:14.195Z,999.502
2017-02-24T07:37:27.404Z,999.931
2017-02-24T07:40:32.451Z,1000.084
2017-02-24T07:43:34.057Z,1000.246
2017-02-24T07:46:42.560Z,1000.353
2017-02-24T07:49:47.430Z,1000.514
2017-02-24T07:58:55.780Z,1000.939
2017-02-24T08:02:07.287Z,1001.017
2017-02-24T08:05:08.644Z,1001.133
2017-02-24T08:08:13.142Z,1001.312
2017-02-24T08:11:18.765Z,1001.416
2017-02-24T08:14:23.496Z,1001.550
2017-02-24T08:17:28.438Z,1001.715
2017-02-24T08:23:39.383Z,1002.068
2017-02-24T09:18:27.973Z,1003.727
2017-02-24T09:21:44.564Z,1003.784
2017-02-24T09:24:45.736Z,1003.862
2017-02-24T09:27:50.270Z,1003.948
2017-02-24T09:30:51.772Z,1004.027
2017-02-24T09:33:56.865Z,1004.136
2017-02-24T09:40:13.722Z,1004.400
2017-02-24T09:43:09.262Z,1004.503
2017-02-24T09:46:17.473Z,1004.563
2017-02-24T09:49:16.001Z,1004.595
2017-02-24T09:52:23.995Z,1004.626
2017-02-24T09:58:30.887Z,1004.798
2017-02-24T10:01:35.981Z,1004.800
2017-02-24T10:04:41.044Z,1004.912
2017-02-24T10:07:46.371Z,1004.894
2017-02-24T10:10:51.656Z,1004.890
2017-02-24T10:13:51.711Z,1004.931
2017-02-24T10:17:02.764Z,1005.035
2017-02-24T10:20:08.061Z,1005.064
2017-02-24T10:23:13.369Z,1005.084
2017-02-24T10:29:24.676Z,1005.005
2017-02-24T10:35:34.675Z,1005.087
2017-02-24T10:38:40.661Z,1005.181
2017-02-24T10:41:45.878Z,1005.317
2017-02-24T10:44:46.223Z,1005.335
2017-02-24T10:47:57.722Z,1005.334
2017-02-24T10:51:02.677Z,1005.293
2017-02-24T10:57:12.997Z,1005.334
2017-02-24T11:09:33.342Z,1005.436
2017-02-24T11:12:33.348Z,1005.486
2017-02-24T11:15:44.246Z,1005.462
2017-02-24T11:18:49.163Z,1005.550
2017-02-24T11:28:05.945Z,1005.651
2017-02-24T11:31:05.353Z,1005.721
2017-02-24T11:34:05.426Z,1005.701
2017-02-24T11:37:16.502Z,1005.760
2017-02-24T11:40:17.004Z,1005.851
2017-02-24T11:43:28.117Z,1005.891
2017-02-24T11:46:30.376Z,1005.845
2017-02-24T11:49:39.662Z,1005.852
2017-02-24T11:52:45.485Z,1005.942
2017-02-24T11:55:45.967Z,1005.957
2017-02-24T11:58:52.082Z,1005.977
2017-02-24T12:02:03.148Z,1006.053
2017-02-24T12:05:09.222Z,1006.149
2017-02-24T12:08:14.634Z,1006.203
2017-02-24T12:11:20.323Z,1006.233
2017-02-24T12:14:25.743Z,1006.264
2017-02-24T12:17:30.897Z,1006.305
2017-02-24T12:20:36.189Z,1006.295
2017-02-24T12:23:42.509Z,1006.298
2017-02-24T12:26:43.061Z,1006.418
2017-02-24T12:29:54.313Z,1006.440
2017-02-24T12:32:59.863Z,1006.522
2017-02-24T12:36:00.867Z,1006.581
2017-02-24T12:39:12.032Z,1006.587
2017-02-24T12:42:12.330Z,1006.619
2017-02-24T12:45:18.539Z,1006.697
2017-02-24T12:48:30.624Z,1006.793
2017-02-24T12:51:36.167Z,1006.860
2017-02-24T12:57:45.076Z,1006.905
2017-02-24T13:00:50.782Z,1006.913
2017-02-24T13:03:50.903Z,1007.023
2017-02-24T13:07:02.136Z,1007.051
2017-02-24T13:10:07.782Z,1007.007
2017-02-24T13:16:19.827Z,1007.056
2017-02-24T13:19:19.449Z,1007.105
2017-02-24T13:22:30.751Z,1007.149
2017-02-24T13:25:34.975Z,1007.137
2017-02-24T13:28:40.444Z,1007.250
2017-02-24T13:31:45.955Z,1007.242
2017-02-24T13:34:51.331Z,1007.232
2017-02-24T13:37:51.844Z,1007.237
2017-02-24T13:41:03.072Z,1007.342
2017-02-24T13:44:03.623Z,1007.386
2017-02-24T13:47:14.963Z,1007.427
2017-02-24T13:50:20.368Z,1007.515
2017-02-24T14:02:40.833Z,1007.580
2017-02-24T14:05:43.829Z,1007.579
2017-02-24T14:08:49.552Z,1007.663
2017-02-24T14:11:50.003Z,1007.703
2017-02-24T14:15:00.667Z,1007.744
2017-02-24T14:18:05.763Z,1007.705
2017-02-24T14:21:11.097Z,1007.727
2017-02-24T14:24:16.630Z,1007.798
2017-02-24T14:27:17.273Z,1007.875
2017-02-24T14:33:34.297Z,1007.954
2017-02-24T14:36:39.713Z,1008.022
2017-02-24T14:39:51.314Z,1008.049
2017-02-24T14:42:49.851Z,1008.070
2017-02-24T14:45:55.300Z,1008.124
2017-02-24T14:48:59.962Z,1008.183
2017-02-24T14:52:05.024Z,1008.203
2017-02-24T14:55:10.522Z,1008.280
2017-02-24T14:58:10.560Z,1008.359
2017-02-24T15:01:16.531Z,1008.357
2017-02-24T15:04:27.688Z,1008.367
2017-02-24T15:07:32.928Z,1008.363
2017-02-24T15:10:38.340Z,1008.418
2017-02-24T15:13:38.592Z,1008.427
2017-02-24T15:16:55.545Z,1008.313
2017-02-24T15:19:55.106Z,1008.300
2017-02-24T15:26:04.843Z,1008.307
2017-02-24T15:29:10.837Z,1008.291
2017-02-24T15:32:15.051Z,1008.341
2017-02-24T15:35:20.570Z,1008.424
2017-02-24T15:38:25.823Z,1008.429
2017-02-24T15:41:32.783Z,1008.456
2017-02-24T15:44:35.621Z,1008.496
2017-02-24T15:47:41.401Z,1008.465
2017-02-24T15:50:46.705Z,1008.452
2017-02-24T15:53:51.641Z,1008.463
2017-02-24T15:56:57.147Z,1008.550
2017-02-24T16:03:08.226Z,1008.612
2017-02-24T16:06:19.411Z,1008.675
2017-02-24T16:09:18.621Z,1008.730
2017-02-24T16:12:24.638Z,1008.903
2017-02-24T16:15:30.035Z,1008.980
2017-02-24T16:18:34.987Z,1009.162
2017-02-24T16:21:40.376Z,1009.377
2017-02-24T16:24:45.458Z,1009.523
2017-02-24T16:27:44.011Z,1009.658
2017-02-24T16:30:55.585Z,1009.762
2017-02-24T16:33:59.356Z,1009.836
2017-02-24T16:37:04.559Z,1009.908
2017-02-24T16:40:09.654Z,1009.995
2017-02-24T16:43:09.764Z,1010.095
2017-02-24T17:16:55.629Z,1010.563
2017-02-24T17:23:04.763Z,1010.646
2017-02-24T17:32:15.703Z,1010.787
2017-02-24T17:35:23.150Z,1010.821
2017-02-24T17:38:20.624Z,1010.908
2017-02-24T17:44:29.650Z,1011.039
2017-02-24T17:53:41.963Z,1011.237
2017-02-24T17:59:49.600Z,1011.327
2017-02-24T18:05:57.162Z,1011.420
2017-02-24T18:09:07.274Z,1011.482
2017-02-24T18:12:12.339Z,1011.524
2017-02-24T18:18:21.762Z,1011.635
2017-02-24T18:21:25.289Z,1011.704
2017-02-24T18:24:28.693Z,1011.745
2017-02-24T18:27:32.306Z,1011.782
2017-02-24T18:30:29.933Z,1011.799
2017-02-24T18:33:39.907Z,1011.839
2017-02-24T18:36:43.902Z,1011.860
2017-02-24T18:39:47.166Z,1011.902
2017-02-24T18:42:50.999Z,1011.960
2017-02-24T18:45:55.188Z,1012.029
2017-02-24T18:48:47.937Z,1012.057
2017-02-24T18:55:08.149Z,1012.224
2017-02-24T18:58:12.909Z,1012.207
2017-02-24T19:01:16.581Z,1012.214
2017-02-24T19:04:14.059Z,1012.241
2017-02-24T19:07:23.911Z,1012.258
2017-02-24T19:13:31.321Z,1012.368
2017-02-24T19:19:38.395Z,1012.432
2017-02-24T19:25:45.545Z,1012.449
2017-02-24T19:28:49.441Z,1012.475
2017-02-24T19:34:58.706Z,1012.451
2017-02-24T19:38:02.088Z,1012.450
2017-02-24T19:41:06.398Z,1012.508
2017-02-24T19:44:10.460Z,1012.558
2017-02-24T19:47:15.144Z,1012.575
2017-02-24T19:50:18.859Z,1012.544
2017-02-24T19:53:21.670Z,1012.564
2017-02-24T19:56:25.545Z,1012.598
2017-02-24T20:05:36.765Z,1012.644
2017-02-24T20:11:44.940Z,1012.661
2017-02-24T20:14:49.796Z,1012.677
2017-02-24T20:17:53.368Z,1012.711
2017-02-24T20:20:57.057Z,1012.769
2017-02-24T20:24:00.619Z,1012.842
2017-02-24T20:26:58.695Z,1012.858
2017-02-24T20:30:08.910Z,1012.808
2017-02-24T20:33:14.052Z,1012.812
2017-02-24T20:39:15.456Z,1012.971
2017-02-24T20:42:25.775Z,1012.978
2017-02-24T20:45:29.496Z,1012.985
2017-02-24T20:48:33.177Z,1012.948
2017-02-24T20:51:37.307Z,1012.966
2017-02-24T20:57:44.507Z,1013.071
2017-02-24T21:03:53.660Z,1013.223
2017-02-24T21:10:01.478Z,1013.322
2017-02-24T21:13:05.553Z,1013.335
2017-02-24T21:19:13.673Z,1013.413
2017-02-24T21:22:17.942Z,1013.401
2017-02-24T21:25:22.936Z,1013.445
2017-02-24T21:28:26.086Z,1013.442
2017-02-24T21:31:24.512Z,1013.408
2017-02-24T21:34:35.114Z,1013.393
2017-02-24T21:37:32.528Z,1013.397
2017-02-24T21:40:42.326Z,1013.438
2017-02-24T21:46:51.264Z,1013.468
2017-02-24T21:49:55.072Z,1013.550
2017-02-24T21:52:59.566Z,1013.544
2017-02-24T21:55:58.807Z,1013.589
2017-02-24T21:59:09.863Z,1013.625
2017-02-24T22:05:18.939Z,1013.628
2017-02-24T22:08:22.152Z,1013.629
2017-02-24T22:11:19.672Z,1013.633
2017-02-24T22:14:30.034Z,1013.627
2017-02-24T22:20:36.907Z,1013.721
2017-02-24T22:23:39.668Z,1013.744
2017-02-24T22:26:38.224Z,1013.806
2017-02-24T22:29:46.656Z,1013.833
2017-02-24T22:32:51.729Z,1013.865
2017-02-24T22:35:55.466Z,1013.899
2017-02-24T22:42:04.314Z,1013.984
2017-02-24T22:45:08.294Z,1013.982
2017-02-24T22:54:21.791Z,1014.036
2017-02-24T22:57:26.568Z,1014.051
2017-02-24T23:00:30.031Z,1014.051
2017-02-24T23:03:33.456Z,1014.099
2017-02-24T23:06:36.868Z,1014.137
2017-02-24T23:12:46.371Z,1014.287
2017-02-24T23:15:49.833Z,1014.387
2017-02-24T23:18:47.534Z,1014.413
2017-02-24T23:21:57.260Z,1014.425
2017-02-24T23:25:01.892Z,1014.461
2017-02-24T23:28:05.538Z,1014.484
2017-02-24T23:34:13.794Z,1014.553
2017-02-24T23:37:16.923Z,1014.567
2017-02-24T23:40:20.410Z,1014.594
2017-02-24T23:43:23.870Z,1014.615
2017-02-24T23:46:27.620Z,1014.649
2017-02-24T23:52:36.197Z,1014.712
2017-02-24T23:55:40.488Z,1014.738
